Davison, Michigan
Current Conditions -  °F | °C
As of 10:33 PM on Saturday 22 Nov 2014 (Local Time) from KD95 Reporting Station
Overcast Overcast  
Wind Chill: 41°   Ceiling: 800
Heat Index: 46°   Visibility: 7mi
Dew Point: 44°   Wind: 10mph
Humidity: 93%   Direction: 230°SW
Pressure: 29.9"   Gusts: NA
Location:  43.03°N, 83.51°W
Report Text: KD95 230333Z AUTO 23009KT 7SM OVC008 08/07 A2990 RMK AO2 T00780067
Loading
Personal Weather Stations






























Interactive Weather Map New forecast layout! Learn more

10-Day Weather Forecast

Advertisements
Track Severe Weather on mobile